Latest Weather Observations for Lake Grace

IDW60801

Issued at 8:05 am WST Sunday 31 August 2014 (issued every 30 minutes, with the page automatically refreshed every 10 minutes)

About weather observations | Map of weather stations | Latest weather observations for WA | Other Formats
Station Details ID: 010911 Name: LAKE GRACE Lat: -33.10 Lon: 118.46 Height: 286.0 m
Data from the previous 72 hours. | See also: Recent months at Lake Grace
Date/Time
WST
Temp
°C
App
Temp
°C
Dew
Point
Rel
Hum
%
Delta-T
°C
Wind Press
QNH
hPa
Press
MSL
hPa
Rain
since 9 am
mm
Dir
 
Spd
km/h
Gust
km/h
Spd
kts
Gust
kts
31/08:00am 9.2 7.3 7.6 90 0.8 SW 7 11 4 6 1019.0 1019.1 0.4
31/07:30am 9.1 5.9 6.9 86 1.0 S 13 20 7 11 1018.8 1018.9 0.4
31/07:00am 9.7 7.5 7.8 88 0.9 SSW 9 13 5 7 1018.1 1018.2 0.4
31/06:30am 9.7 7.5 7.8 88 0.9 SSW 9 15 5 8 1017.9 1018.0 0.4
31/06:00am 9.6 7.8 8.0 90 0.8 SSW 7 11 4 6 1017.7 1017.8 0.4
31/05:30am 9.6 8.1 8.4 92 0.6 SSW 6 9 3 5 1017.3 1017.4 0.4
31/05:00am 9.8 8.4 8.7 93 0.5 SW 6 7 3 4 1017.4 1017.5 0.4
31/04:30am 9.8 8.2 8.7 93 0.5 SW 7 9 4 5 1017.3 1017.4 0.4
31/04:00am 9.5 8.0 8.4 93 0.5 SSW 6 7 3 4 1017.0 1017.0 0.4
31/03:30am 9.5 9.1 8.4 93 0.5 CALM 0 0 0 0 1017.0 1017.0 0.4
31/03:00am 9.5 9.1 8.4 93 0.5 CALM 0 0 0 0 1016.9 1016.9 0.4
31/02:30am 9.6 9.2 8.4 92 0.6 CALM 0 0 0 0 1016.6 1016.7 0.4
31/02:00am 9.7 8.2 8.5 92 0.6 S 6 6 3 3 1017.1 1017.2 0.4
31/01:30am 9.8 8.3 8.4 91 0.7 SSE 6 7 3 4 1016.7 1016.8 0.4
31/01:00am 9.9 8.4 8.3 90 0.8 S 6 9 3 5 1017.0 1017.0 0.4
31/12:30am 10.2 8.2 8.5 89 0.8 S 9 13 5 7 1017.2 1017.3 0.4
31/12:00am 10.7 8.7 8.8 88 1.0 SSE 9 13 5 7 1017.0 1017.0 0.4
 
Date/Time
WST
Temp
°C
App
Temp
°C
Dew
Point
Rel
Hum
%
Delta-T
°C
Wind Press
QNH
hPa
Press
MSL
hPa
Rain
since 9 am
mm
Dir
 
Spd
km/h
Gust
km/h
Spd
kts
Gust
kts
30/11:30pm 10.8 8.8 8.7 87 1.1 S 9 11 5 6 1017.3 1017.4 0.4
30/11:00pm 10.9 9.0 9.0 88 1.0 S 9 13 5 7 1017.8 1017.9 0.4
30/10:30pm 11.2 9.2 8.8 85 1.2 S 9 15 5 8 1017.3 1017.4 0.4
30/10:00pm 11.7 10.3 9.4 86 1.2 SSE 7 19 4 10 1017.4 1017.5 0.4
30/09:30pm 12.2 12.2 9.9 86 1.2 CALM 0 0 0 0 1017.5 1017.6 0.4
30/09:00pm 12.6 12.2 9.8 83 1.4 S 2 6 1 3 1017.5 1017.6 0.4
30/08:30pm 12.9 11.5 9.5 80 1.8 SSW 7 11 4 6 1017.3 1017.4 0.4
30/08:00pm 13.1 11.3 9.5 79 1.9 SSW 9 11 5 6 1017.3 1017.4 0.4
30/07:30pm 13.4 11.9 9.3 76 2.1 SW 7 11 4 6 1017.0 1017.0 0.4
30/07:00pm 13.7 12.1 10.1 79 1.9 SSW 9 15 5 8 1016.3 1016.4 0.4
30/06:30pm 14.0 12.6 11.0 82 1.6 WSW 9 15 5 8 1016.3 1016.4 0.4
30/06:00pm 14.1 13.0 10.7 80 1.8 WSW 7 11 4 6 1016.0 1016.1 0.4
30/05:30pm 14.2 13.3 11.2 82 1.6 SW 7 11 4 6 1015.8 1015.9 0.4
30/05:00pm 14.3 13.5 11.1 81 1.7 SSW 6 9 3 5 1015.7 1015.8 0.4
30/04:30pm 14.5 12.4 11.3 81 1.7 SSW 13 19 7 10 1015.3 1015.4 0.4
30/04:00pm 15.1 13.0 11.3 78 2.1 SW 13 19 7 10 1014.8 1014.9 0.4
30/03:30pm 15.2 13.2 11.6 79 2.0 SSW 13 17 7 9 1014.7 1014.8 0.4
30/03:00pm 15.6 13.7 11.8 78 2.1 SW 13 20 7 11 1014.6 1014.7 0.4
30/02:30pm 16.1 13.8 11.7 75 2.4 SW 15 22 8 12 1014.5 1014.6 0.4
30/02:00pm 16.2 14.4 12.2 77 2.2 SSW 13 22 7 12 1014.4 1014.5 0.4
30/01:30pm 16.4 14.3 11.3 72 2.8 SW 13 20 7 11 1014.3 1014.4 0.4
30/01:00pm 17.1 16.1 12.4 74 2.6 SW 9 19 5 10 1014.4 1014.5 0.4
30/12:30pm 16.4 15.4 12.2 76 2.3 SW 9 15 5 8 1014.7 1014.8 0.4
30/12:00pm 16.3 14.8 13.0 81 1.9 SW 13 19 7 10 1014.9 1015.0 0.4
30/11:30am 15.0 13.3 12.5 85 1.4 SW 13 20 7 11 1014.9 1015.0 0.4
30/11:00am 14.8 14.1 13.3 91 0.8 SW 9 17 5 9 1015.0 1015.1 0.4
30/10:30am 14.2 13.2 13.4 95 0.4 SW 11 19 6 10 1015.2 1015.3 0.4
30/10:00am 14.1 13.5 13.5 96 0.3 W 9 17 5 9 1015.2 1015.3 0.4
30/09:30am 14.1 13.1 13.5 96 0.3 NW 11 17 6 9 1015.1 1015.2 0.0
30/09:00am 13.7 12.2 13.1 96 0.3 WNW 13 19 7 10 1015.1 1015.2 25.2
30/08:30am 13.7 12.2 13.1 96 0.3 NNW 13 19 7 10 1014.7 1014.8 24.8
30/08:00am 13.6 12.1 13.0 96 0.3 NNW 13 17 7 9 1014.4 1014.5 24.8
30/07:30am 13.0 11.7 12.4 96 0.3 NNW 11 17 6 9 1014.1 1014.2 24.8
30/07:00am 12.9 11.5 12.3 96 0.3 NNW 11 17 6 9 1013.9 1013.9 24.8
30/06:30am 12.7 10.5 12.1 96 0.3 NNW 15 20 8 11 1013.6 1013.6 24.8
30/06:00am 12.7 10.9 12.1 96 0.3 NNW 13 20 7 11 1013.2 1013.2 24.8
30/05:30am 12.8 11.1 12.3 97 0.3 NNW 13 19 7 10 1012.8 1012.9 24.8
30/05:00am 12.8 10.7 12.3 97 0.3 NNW 15 20 8 11 1012.7 1012.8 24.8
30/04:30am 12.9 10.8 12.3 96 0.3 NNW 15 20 8 11 1012.7 1012.8 24.8
30/04:00am 13.0 10.2 12.5 97 0.3 N 19 26 10 14 1012.4 1012.5 24.8
30/03:30am 13.1 11.4 12.5 96 0.3 NNW 13 20 7 11 1012.6 1012.7 24.6
30/03:00am 13.1 10.3 12.5 96 0.3 N 19 28 10 15 1012.8 1012.9 23.6
30/02:30am 12.9 11.2 12.3 96 0.3 N 13 19 7 10 1012.1 1012.2 22.8
30/02:00am 13.1 11.0 12.5 96 0.3 N 15 20 8 11 1013.0 1013.1 22.8
30/01:30am 13.2 12.3 12.6 96 0.3 N 9 13 5 7 1013.6 1013.6 22.6
30/01:00am 13.2 12.7 12.6 96 0.3 NNW 7 11 4 6 1013.7 1013.7 21.6
30/12:30am 13.3 12.1 12.7 96 0.3 N 11 15 6 8 1013.5 1013.5 21.0
30/12:00am 13.4 12.1 12.6 95 0.4 N 11 13 6 7 1013.6 1013.6 19.8
 
Date/Time
WST
Temp
°C
App
Temp
°C
Dew
Point
Rel
Hum
%
Delta-T
°C
Wind Press
QNH
hPa
Press
MSL
hPa
Rain
since 9 am
mm
Dir
 
Spd
km/h
Gust
km/h
Spd
kts
Gust
kts
29/11:30pm 13.4 14.2 12.6 95 0.4 CALM 0 0 0 0 1013.3 1013.3 19.6
29/11:00pm 13.5 13.2 12.6 94 0.5 NW 6 9 3 5 1014.1 1014.2 18.6
29/10:30pm 13.7 12.9 12.8 94 0.5 NNW 9 15 5 8 1013.7 1013.7 17.6
29/10:00pm 13.8 11.8 12.7 93 0.6 NW 15 22 8 12 1014.1 1014.2 17.2
29/09:30pm 14.3 12.5 13.3 94 0.6 NNW 15 20 8 11 1014.2 1014.3 16.8
29/09:00pm 14.3 12.5 13.3 94 0.6 NNW 15 20 8 11 1014.3 1014.4 16.4
29/08:30pm 14.7 12.6 13.7 94 0.6 NNW 17 24 9 13 1014.0 1014.0 15.4
29/08:00pm 14.9 12.5 13.9 94 0.6 NW 19 28 10 15 1013.7 1013.7 12.6
29/07:30pm 14.7 13.0 13.7 94 0.6 NNW 15 20 8 11 1013.6 1013.6 11.4
29/07:00pm 14.6 13.2 13.5 93 0.6 NNW 13 20 7 11 1013.3 1013.3 11.0
29/06:30pm 14.9 12.7 13.3 90 0.9 NNW 17 26 9 14 1013.5 1013.5 10.6
29/06:00pm 15.2 12.6 13.1 87 1.2 NNW 19 30 10 16 1013.2 1013.2 10.6
29/05:30pm 15.3 12.0 12.8 85 1.4 NW 22 32 12 17 1012.8 1012.9 10.6
29/05:00pm 15.1 10.3 12.8 86 1.3 NNW 30 41 16 22 1012.3 1012.4 10.6
29/04:30pm 15.6 13.4 13.3 86 1.3 NNW 17 28 9 15 1012.6 1012.7 10.6
29/04:00pm 15.1 14.1 13.3 89 1.0 NW 11 17 6 9 1012.8 1012.9 10.6
29/03:30pm 15.0 14.0 13.5 91 0.8 WNW 11 17 6 9 1012.5 1012.6 10.6
29/03:00pm 13.3 14.1 12.4 94 0.5 CALM 0 6 0 3 1012.5 1012.6 10.6
29/02:30pm 12.9 11.4 12.0 94 0.5 SW 11 15 6 8 1013.6 1013.6 10.2
29/02:00pm 12.6 9.9 11.7 94 0.5 WSW 17 28 9 15 1013.6 1013.6 8.4
29/01:30pm 12.8 9.7 11.5 92 0.7 SW 19 26 10 14 1012.7 1012.8 4.4
29/01:18pm 13.0 7.7 11.1 88 1.0 WSW 30 48 16 26 1012.5 1012.6 1.8
29/01:11pm 14.3 8.4 10.3 77 2.1 WSW 32 43 17 23 1012.4 1012.5 0.2
29/01:00pm 19.7 14.6 10.7 56 5.0 NW 28 43 15 23 1011.2 1011.3 0.0
29/12:38pm 19.8 14.6 11.6 59 4.6 NW 30 48 16 26 1011.4 1011.5 0.0
29/12:30pm 19.1 13.4 11.2 60 4.4 NW 32 48 17 26 1011.5 1011.6 0.0
29/12:12pm 19.7 13.8 10.4 55 5.1 NW 32 50 17 27 1011.5 1011.6 0.0
29/12:00pm 19.3 13.9 12.3 64 4.0 NNW 32 44 17 24 1011.6 1011.7 0.0
29/11:30am 18.2 12.9 12.6 70 3.2 NNW 32 50 17 27 1012.0 1012.1 0.0
29/11:00am 18.6 13.6 12.1 66 3.7 NW 30 44 16 24 1012.3 1012.4 0.0
29/10:30am 17.9 14.8 13.4 75 2.6 NNW 22 32 12 17 1012.6 1012.7 0.0
29/10:00am 16.4 13.1 12.8 79 2.0 NNW 22 32 12 17 1012.7 1012.8 0.0
29/09:30am 15.3 12.4 12.4 83 1.6 NNW 19 28 10 15 1013.0 1013.1 0.0
29/09:00am 14.7 11.2 12.2 85 1.4 NNW 22 35 12 19 1013.6 1013.6 0.0
29/08:30am 13.3 9.5 11.0 86 1.2 NNW 22 30 12 16 1013.6 1013.6 0.0
29/08:00am 13.1 9.1 10.3 83 1.5 N 22 32 12 17 1013.5 1013.5 0.0
29/07:30am 12.2 8.8 9.2 82 1.5 N 17 24 9 13 1013.3 1013.3 0.0
29/07:00am 10.6 6.5 8.0 84 1.3 N 19 22 10 12 1013.2 1013.2 0.0
29/06:30am 10.6 7.2 7.8 83 1.4 N 15 19 8 10 1013.4 1013.4 0.0
29/06:00am 10.8 7.4 7.5 80 1.6 N 15 20 8 11 1013.0 1013.1 0.0
29/05:30am 11.2 7.7 7.3 77 1.9 N 15 20 8 11 1012.9 1013.0 0.0
29/05:00am 11.5 8.0 7.4 76 2.0 NNW 15 20 8 11 1013.2 1013.2 0.0
29/04:30am 11.5 8.0 7.4 76 2.0 N 15 19 8 10 1013.0 1013.1 0.0
29/04:00am 11.4 8.0 7.7 78 1.8 N 15 19 8 10 1013.3 1013.3 0.0
29/03:30am 11.1 8.1 7.8 80 1.6 N 13 15 7 8 1013.3 1013.3 0.0
29/03:00am 11.0 8.0 7.7 80 1.6 N 13 17 7 9 1013.3 1013.3 0.0
29/02:30am 10.4 8.0 6.9 79 1.7 N 9 13 5 7 1013.2 1013.2 0.0
29/02:00am 10.3 7.4 6.6 78 1.8 N 11 13 6 7 1013.7 1013.7 0.0
29/01:30am 10.3 8.3 6.3 76 1.9 N 6 7 3 4 1013.8 1013.8 0.0
29/01:00am 10.6 7.2 6.0 73 2.2 N 13 15 7 8 1014.1 1014.2 0.0
29/12:30am 11.3 8.7 6.0 70 2.5 N 9 11 5 6 1014.4 1014.5 0.0
29/12:00am 11.3 8.8 6.4 72 2.3 N 9 11 5 6 1014.3 1014.4 0.0
 
Date/Time
WST
Temp
°C
App
Temp
°C
Dew
Point
Rel
Hum
%
Delta-T
°C
Wind Press
QNH
hPa
Press
MSL
hPa
Rain
since 9 am
mm
Dir
 
Spd
km/h
Gust
km/h
Spd
kts
Gust
kts
28/11:30pm 11.3 8.3 6.0 70 2.5 N 11 13 6 7 1014.6 1014.7 0.0
28/11:00pm 12.0 9.3 5.6 65 3.0 NNW 9 13 5 7 1015.0 1015.1 0.0
28/10:30pm 12.0 9.4 6.3 68 2.7 N 9 11 5 6 1015.2 1015.3 0.0
28/10:00pm 12.4 10.4 7.1 70 2.6 NNW 7 9 4 5 1015.3 1015.4 0.0
28/09:30pm 14.3 11.6 7.4 63 3.4 NNW 11 13 6 7 1015.2 1015.3 0.0
28/09:00pm 13.6 11.3 7.4 66 3.1 NNW 9 13 5 7 1015.3 1015.4 0.0
28/08:30pm 13.8 11.4 7.1 64 3.3 N 9 11 5 6 1015.3 1015.4 0.0
28/08:00pm 14.6 12.6 6.9 60 3.8 N 7 9 4 5 1015.3 1015.4 0.0
28/07:30pm 16.7 13.9 6.8 52 5.0 NNW 11 13 6 7 1015.2 1015.3 0.0
28/07:00pm 17.4 14.9 6.6 49 5.4 NNW 9 13 5 7 1015.0 1015.1 0.0
28/06:30pm 17.4 14.7 7.2 51 5.2 N 11 13 6 7 1014.9 1015.0 0.0
28/06:00pm 17.6 15.2 6.8 49 5.4 N 9 11 5 6 1014.8 1014.9 0.0
28/05:30pm 20.4 16.8 5.2 37 7.6 NW 13 19 7 10 1014.5 1014.6 0.0
28/05:00pm 21.1 17.5 5.1 35 8.0 NW 13 19 7 10 1014.5 1014.6 0.0
28/04:30pm 21.5 16.6 5.0 34 8.2 NNW 20 32 11 17 1014.4 1014.5 0.0
28/04:00pm 22.1 16.8 5.1 33 8.5 NW 22 33 12 18 1014.2 1014.3 0.0
28/03:30pm 22.8 17.0 4.3 30 9.2 NW 24 37 13 20 1014.2 1014.3 0.0
28/03:00pm 23.3 17.5 4.3 29 9.5 NW 24 43 13 23 1014.3 1014.4 0.0
28/02:30pm 22.6 17.6 6.4 35 8.4 NNW 22 33 12 18 1014.6 1014.7 0.0
28/02:00pm 21.9 15.7 6.2 36 8.0 NNW 28 37 15 20 1014.7 1014.8 0.0
28/01:30pm 20.8 16.3 8.4 45 6.6 NNW 22 33 12 18 1014.9 1015.0 0.0
28/01:00pm 19.5 15.5 9.1 51 5.5 NNW 20 32 11 17 1015.4 1015.5 0.0
28/12:30pm 19.0 14.3 9.2 53 5.2 N 24 33 13 18 1015.6 1015.7 0.0
28/12:00pm 18.4 14.2 9.7 57 4.7 N 22 32 12 17 1015.9 1016.0 0.0
28/11:30am 18.0 14.2 9.9 59 4.3 N 20 28 11 15 1016.1 1016.2 0.0
28/11:00am 17.7 14.0 10.3 62 4.0 N 20 32 11 17 1016.2 1016.3 0.0
28/10:30am 16.8 13.2 10.4 66 3.4 N 20 28 11 15 1016.5 1016.6 0.0
28/10:00am 16.5 12.9 10.4 67 3.3 N 20 32 11 17 1017.0 1017.0 0.0
28/09:30am 16.1 13.8 11.7 75 2.4 NNW 15 20 8 11 1017.2 1017.3 0.0
28/09:00am 14.3 12.3 11.6 84 1.5 N 13 19 7 10 1017.2 1017.3 0.0
28/08:30am 13.0 10.8 10.9 87 1.1 N 13 19 7 10 1017.3 1017.4 0.0

Other Formats:

Comma delimited format used in spreadsheet applications
http://www.bom.gov.au/fwo/IDW60801/IDW60801.95637.axf

JavaScript Object Notation format (JSON) in row-major order
http://www.bom.gov.au/fwo/IDW60801/IDW60801.95637.json